Connellsville, PA

1:16 AM EST on February 10, 2016 (GMT -0500)
DAVIS ROAD DAWSON | | Change Station
CLOSE
Current Station
Personal Weather Station
Location: Dawson, PA
Elevation: 1079 ft
Nearby Weather Stations
Active Advisory: Winter Weather Advisory Active Notice: Public Information Statement

Elev 1079 ft 40.07 °N, 79.65 °W | Updated 5 seconds ago

Snow
Snow
24.1 °F
Feels Like 24 °F
N
2.9
Wind Variable Wind from WSW
Gusts 8.0 mph

Today
High -- | Low -- °F
--% Chance of Precip.
Yesterday
High -- | Low -- °F
Precip. -- in
Pressure 29.70 in
Visibility 3.0 miles
Clouds Overcast 1800 ft
Windchill 24 °F
Dew Point 21 °F
Humidity 87%
Rainfall 0.00 in
Snow Depth Not available.
7:17 AM 5:47 PM
Waxing Crescent, 4% visible
METAR KLBE 100555Z AUTO 22010KT 3SM -SN OVC018 M05/M05 A2970 RMK AO2 P0013
Pressure 29.70 in
Visibility 3.0 miles
Clouds Overcast 1800 ft
Windchill 24 °F
Dew Point 21 °F
Humidity 87%
Rainfall 0.00 in
Snow Depth Not available.
7:17 AM 5:47 PM
Waxing Crescent, 4% visible
METAR KLBE 100555Z AUTO 22010KT 3SM -SN OVC018 M05/M05 A2970 RMK AO2 P0013

10-Day Weather Forecast

Almanac

Astronomy

Feb. 10, 2016 Rise Set
Actual Time
Civil Twilight
Nautical Twilight
Astronomical Twilight
Moon
Length of Visible Light
Length of Day
Tomorrow will be .
, % of the Moon is Illuminated

Today's Extremes

State Highs State Lows

Community

WunderPhotos

Upload Photos

1,891,826 photos uploaded!

WunderBlog® & News

Nearby

Air Quality

  Air Quality AQ Index Pollutant
Not available.

Snow Depth

Station Depth Elevation

Earthquake Activity

City Distance Mag. Time & Date
Minimum magnitude displayed is 2.5.

Coastal Water Temperatures

Place Temperature

Stations

Nearby Weather Stations

Station Location Temp. Windchill Dew Point Humidity Wind Precip. Elev Updated Type
                   

Watches & Warnings

Winter Weather Advisory
Issued: 6:22 PM EST Feb. 9, 2016 – National Weather Service

... Winter Weather Advisory remains in effect until 7 am EST
Wednesday...

* additional snow accumulation... 1 to 2 inches.

* Snow ending... snow showers will diminish late tonight.

* Impacts... hazardous travel conditions are expected due to snow.

Precautionary/preparedness actions...

A Winter Weather Advisory for snow means that periods of snow
will cause primarily travel difficulties. Be prepared for snow
covered roads and limited visibilities... and use caution while
driving.